sensor_id;sensor_type;location;lat;lon;timestamp;P1;durP1;ratioP1;P2;durP2;ratioP2
8708;SDS011;4391;48.678;9.280;2022-12-19T00:01:58;54.05;;;17.75;;
8708;SDS011;4391;48.678;9.280;2022-12-19T00:04:25;54.28;;;18.42;;
8708;SDS011;4391;48.678;9.280;2022-12-19T00:06:51;49.15;;;17.77;;
8708;SDS011;4391;48.678;9.280;2022-12-19T00:09:19;42.78;;;15.55;;
8708;SDS011;4391;48.678;9.280;2022-12-19T00:11:46;52.17;;;17.52;;
8708;SDS011;4391;48.678;9.280;2022-12-19T00:14:14;42.65;;;17.10;;
8708;SDS011;4391;48.678;9.280;2022-12-19T00:16:41;46.55;;;16.50;;
8708;SDS011;4391;48.678;9.280;2022-12-19T00:19:08;43.28;;;16.52;;
8708;SDS011;4391;48.678;9.280;2022-12-19T00:21:36;51.67;;;18.00;;
8708;SDS011;4391;48.678;9.280;2022-12-19T00:24:04;40.65;;;15.57;;
8708;SDS011;4391;48.678;9.280;2022-12-19T00:26:32;45.78;;;16.02;;
8708;SDS011;4391;48.678;9.280;2022-12-19T00:29:01;44.45;;;16.75;;
8708;SDS011;4391;48.678;9.280;2022-12-19T00:31:31;47.88;;;16.30;;
8708;SDS011;4391;48.678;9.280;2022-12-19T00:34:00;51.27;;;18.67;;
8708;SDS011;4391;48.678;9.280;2022-12-19T00:36:28;51.60;;;17.90;;
8708;SDS011;4391;48.678;9.280;2022-12-19T00:38:56;51.95;;;20.38;;
8708;SDS011;4391;48.678;9.280;2022-12-19T00:41:24;51.30;;;19.92;;
8708;SDS011;4391;48.678;9.280;2022-12-19T00:43:53;50.92;;;18.58;;
8708;SDS011;4391;48.678;9.280;2022-12-19T00:46:20;51.73;;;18.07;;
8708;SDS011;4391;48.678;9.280;2022-12-19T00:48:49;53.28;;;19.15;;
8708;SDS011;4391;48.678;9.280;2022-12-19T00:51:16;48.30;;;18.70;;
8708;SDS011;4391;48.678;9.280;2022-12-19T00:53:45;50.53;;;18.95;;
8708;SDS011;4391;48.678;9.280;2022-12-19T00:56:13;50.40;;;18.67;;
8708;SDS011;4391;48.678;9.280;2022-12-19T00:58:42;51.83;;;19.73;;
8708;SDS011;4391;48.678;9.280;2022-12-19T01:01:10;51.67;;;18.50;;
8708;SDS011;4391;48.678;9.280;2022-12-19T01:03:40;47.33;;;18.52;;
8708;SDS011;4391;48.678;9.280;2022-12-19T01:06:08;50.75;;;17.80;;
8708;SDS011;4391;48.678;9.280;2022-12-19T01:08:35;46.63;;;17.20;;
8708;SDS011;4391;48.678;9.280;2022-12-19T01:11:03;42.40;;;16.37;;
8708;SDS011;4391;48.678;9.280;2022-12-19T01:13:31;43.88;;;16.75;;
8708;SDS011;4391;48.678;9.280;2022-12-19T01:16:01;44.13;;;15.93;;
8708;SDS011;4391;48.678;9.280;2022-12-19T01:18:28;52.90;;;18.10;;
8708;SDS011;4391;48.678;9.280;2022-12-19T01:21:01;49.70;;;16.92;;
8708;SDS011;4391;48.678;9.280;2022-12-19T01:23:31;45.97;;;16.13;;
8708;SDS011;4391;48.678;9.280;2022-12-19T01:25:58;47.42;;;18.30;;
8708;SDS011;4391;48.678;9.280;2022-12-19T01:28:24;44.58;;;16.98;;
8708;SDS011;4391;48.678;9.280;2022-12-19T01:30:51;32.28;;;13.52;;
8708;SDS011;4391;48.678;9.280;2022-12-19T01:33:18;48.25;;;18.17;;
8708;SDS011;4391;48.678;9.280;2022-12-19T01:35:46;49.50;;;16.33;;
8708;SDS011;4391;48.678;9.280;2022-12-19T01:38:14;54.42;;;18.30;;
8708;SDS011;4391;48.678;9.280;2022-12-19T01:40:49;46.78;;;17.05;;
8708;SDS011;4391;48.678;9.280;2022-12-19T01:43:16;49.45;;;18.33;;
8708;SDS011;4391;48.678;9.280;2022-12-19T01:45:44;45.88;;;16.88;;
8708;SDS011;4391;48.678;9.280;2022-12-19T01:48:15;45.77;;;16.67;;
8708;SDS011;4391;48.678;9.280;2022-12-19T01:50:48;45.20;;;17.27;;
8708;SDS011;4391;48.678;9.280;2022-12-19T01:53:17;46.00;;;17.10;;
8708;SDS011;4391;48.678;9.280;2022-12-19T01:55:46;49.65;;;17.95;;
8708;SDS011;4391;48.678;9.280;2022-12-19T01:58:15;46.88;;;17.15;;
8708;SDS011;4391;48.678;9.280;2022-12-19T02:00:42;48.27;;;18.17;;
8708;SDS011;4391;48.678;9.280;2022-12-19T02:03:10;41.50;;;15.77;;
8708;SDS011;4391;48.678;9.280;2022-12-19T02:05:40;41.78;;;16.77;;
8708;SDS011;4391;48.678;9.280;2022-12-19T02:08:08;43.70;;;17.17;;
8708;SDS011;4391;48.678;9.280;2022-12-19T02:10:36;46.63;;;17.38;;
8708;SDS011;4391;48.678;9.280;2022-12-19T02:13:04;44.10;;;16.43;;
8708;SDS011;4391;48.678;9.280;2022-12-19T02:15:31;49.33;;;16.75;;
8708;SDS011;4391;48.678;9.280;2022-12-19T02:18:03;48.38;;;16.83;;
8708;SDS011;4391;48.678;9.280;2022-12-19T02:20:51;47.90;;;17.60;;
8708;SDS011;4391;48.678;9.280;2022-12-19T02:23:44;50.45;;;17.40;;
8708;SDS011;4391;48.678;9.280;2022-12-19T02:26:45;49.07;;;17.23;;
8708;SDS011;4391;48.678;9.280;2022-12-19T02:29:32;40.85;;;17.48;;
8708;SDS011;4391;48.678;9.280;2022-12-19T02:32:10;46.50;;;17.63;;
8708;SDS011;4391;48.678;9.280;2022-12-19T02:34:44;47.35;;;16.98;;
8708;SDS011;4391;48.678;9.280;2022-12-19T02:37:16;49.65;;;18.33;;
8708;SDS011;4391;48.678;9.280;2022-12-19T02:39:48;41.47;;;15.80;;
8708;SDS011;4391;48.678;9.280;2022-12-19T02:42:21;48.97;;;17.38;;
8708;SDS011;4391;48.678;9.280;2022-12-19T02:44:53;44.10;;;16.15;;
8708;SDS011;4391;48.678;9.280;2022-12-19T02:47:23;47.00;;;17.45;;
8708;SDS011;4391;48.678;9.280;2022-12-19T02:49:50;47.63;;;17.60;;
8708;SDS011;4391;48.678;9.280;2022-12-19T02:55:10;50.67;;;18.30;;
8708;SDS011;4391;48.678;9.280;2022-12-19T02:57:41;44.38;;;17.45;;
8708;SDS011;4391;48.678;9.280;2022-12-19T03:00:18;50.70;;;16.85;;
8708;SDS011;4391;48.678;9.280;2022-12-19T03:02:52;41.95;;;16.70;;
8708;SDS011;4391;48.678;9.280;2022-12-19T03:05:25;48.30;;;17.23;;
8708;SDS011;4391;48.678;9.280;2022-12-19T03:08:00;42.70;;;16.13;;
8708;SDS011;4391;48.678;9.280;2022-12-19T03:10:34;43.80;;;15.35;;
8708;SDS011;4391;48.678;9.280;2022-12-19T03:13:06;43.47;;;15.88;;
8708;SDS011;4391;48.678;9.280;2022-12-19T03:15:36;44.13;;;14.93;;
8708;SDS011;4391;48.678;9.280;2022-12-19T03:18:05;44.83;;;15.27;;
8708;SDS011;4391;48.678;9.280;2022-12-19T03:20:35;48.10;;;18.20;;
8708;SDS011;4391;48.678;9.280;2022-12-19T03:23:08;44.78;;;16.58;;
8708;SDS011;4391;48.678;9.280;2022-12-19T03:25:35;47.08;;;16.88;;
8708;SDS011;4391;48.678;9.280;2022-12-19T03:28:05;47.80;;;16.65;;
8708;SDS011;4391;48.678;9.280;2022-12-19T03:30:37;46.13;;;16.47;;
8708;SDS011;4391;48.678;9.280;2022-12-19T03:33:08;44.17;;;15.88;;
8708;SDS011;4391;48.678;9.280;2022-12-19T03:35:37;45.22;;;15.85;;
8708;SDS011;4391;48.678;9.280;2022-12-19T03:38:06;42.13;;;15.50;;
8708;SDS011;4391;48.678;9.280;2022-12-19T03:40:37;43.95;;;16.70;;
8708;SDS011;4391;48.678;9.280;2022-12-19T03:43:07;49.23;;;18.03;;
8708;SDS011;4391;48.678;9.280;2022-12-19T03:45:41;44.40;;;16.73;;
8708;SDS011;4391;48.678;9.280;2022-12-19T03:48:15;46.47;;;16.83;;
8708;SDS011;4391;48.678;9.280;2022-12-19T03:50:47;42.60;;;16.58;;
8708;SDS011;4391;48.678;9.280;2022-12-19T03:53:23;43.97;;;15.75;;
8708;SDS011;4391;48.678;9.280;2022-12-19T03:56:01;42.43;;;15.87;;
8708;SDS011;4391;48.678;9.280;2022-12-19T03:58:35;36.28;;;14.88;;
8708;SDS011;4391;48.678;9.280;2022-12-19T04:01:06;42.05;;;14.88;;
8708;SDS011;4391;48.678;9.280;2022-12-19T04:03:35;43.28;;;15.90;;
8708;SDS011;4391;48.678;9.280;2022-12-19T04:06:02;41.58;;;15.60;;
8708;SDS011;4391;48.678;9.280;2022-12-19T04:08:30;43.87;;;15.37;;
8708;SDS011;4391;48.678;9.280;2022-12-19T04:11:00;44.85;;;16.58;;
8708;SDS011;4391;48.678;9.280;2022-12-19T04:13:31;43.60;;;15.90;;
8708;SDS011;4391;48.678;9.280;2022-12-19T04:16:04;44.47;;;16.23;;
8708;SDS011;4391;48.678;9.280;2022-12-19T04:18:39;42.60;;;17.10;;
8708;SDS011;4391;48.678;9.280;2022-12-19T04:21:11;42.93;;;15.83;;
8708;SDS011;4391;48.678;9.280;2022-12-19T04:23:43;43.20;;;15.65;;
8708;SDS011;4391;48.678;9.280;2022-12-19T04:26:13;40.25;;;16.25;;
8708;SDS011;4391;48.678;9.280;2022-12-19T04:28:46;42.47;;;15.73;;
8708;SDS011;4391;48.678;9.280;2022-12-19T04:31:15;41.85;;;14.73;;
8708;SDS011;4391;48.678;9.280;2022-12-19T04:33:45;41.23;;;15.63;;
8708;SDS011;4391;48.678;9.280;2022-12-19T04:36:12;42.85;;;15.25;;
8708;SDS011;4391;48.678;9.280;2022-12-19T04:38:39;49.65;;;16.27;;
8708;SDS011;4391;48.678;9.280;2022-12-19T04:41:06;39.20;;;15.05;;
8708;SDS011;4391;48.678;9.280;2022-12-19T04:43:33;42.15;;;15.65;;
8708;SDS011;4391;48.678;9.280;2022-12-19T04:46:00;43.40;;;16.40;;
8708;SDS011;4391;48.678;9.280;2022-12-19T04:48:26;40.58;;;14.98;;
8708;SDS011;4391;48.678;9.280;2022-12-19T04:50:55;42.47;;;14.77;;
8708;SDS011;4391;48.678;9.280;2022-12-19T04:53:22;45.60;;;16.70;;
8708;SDS011;4391;48.678;9.280;2022-12-19T04:55:49;38.38;;;15.05;;
8708;SDS011;4391;48.678;9.280;2022-12-19T04:58:16;42.77;;;16.43;;
8708;SDS011;4391;48.678;9.280;2022-12-19T05:00:42;40.45;;;16.02;;
8708;SDS011;4391;48.678;9.280;2022-12-19T05:03:09;43.63;;;13.82;;
8708;SDS011;4391;48.678;9.280;2022-12-19T05:05:36;45.03;;;16.40;;
8708;SDS011;4391;48.678;9.280;2022-12-19T05:08:04;44.22;;;16.35;;
8708;SDS011;4391;48.678;9.280;2022-12-19T05:10:31;40.23;;;14.70;;
8708;SDS011;4391;48.678;9.280;2022-12-19T05:12:58;47.72;;;17.10;;
8708;SDS011;4391;48.678;9.280;2022-12-19T05:15:25;42.67;;;16.58;;
8708;SDS011;4391;48.678;9.280;2022-12-19T05:17:52;45.08;;;17.23;;
8708;SDS011;4391;48.678;9.280;2022-12-19T05:20:18;53.97;;;15.07;;
8708;SDS011;4391;48.678;9.280;2022-12-19T05:22:45;42.23;;;16.23;;
8708;SDS011;4391;48.678;9.280;2022-12-19T05:25:13;44.28;;;15.30;;
8708;SDS011;4391;48.678;9.280;2022-12-19T05:27:40;46.95;;;15.85;;
8708;SDS011;4391;48.678;9.280;2022-12-19T05:30:07;41.63;;;15.30;;
8708;SDS011;4391;48.678;9.280;2022-12-19T05:32:35;44.90;;;15.95;;
8708;SDS011;4391;48.678;9.280;2022-12-19T05:35:02;41.87;;;16.00;;
8708;SDS011;4391;48.678;9.280;2022-12-19T05:37:29;47.17;;;16.23;;
8708;SDS011;4391;48.678;9.280;2022-12-19T05:39:56;44.53;;;15.45;;
8708;SDS011;4391;48.678;9.280;2022-12-19T05:42:25;46.65;;;15.98;;
8708;SDS011;4391;48.678;9.280;2022-12-19T05:44:51;45.70;;;15.18;;
8708;SDS011;4391;48.678;9.280;2022-12-19T05:47:21;40.73;;;15.00;;
8708;SDS011;4391;48.678;9.280;2022-12-19T05:49:48;46.95;;;15.80;;
8708;SDS011;4391;48.678;9.280;2022-12-19T05:52:15;39.58;;;15.60;;
8708;SDS011;4391;48.678;9.280;2022-12-19T05:54:41;46.38;;;16.63;;
8708;SDS011;4391;48.678;9.280;2022-12-19T05:57:08;39.95;;;16.17;;
8708;SDS011;4391;48.678;9.280;2022-12-19T05:59:36;41.87;;;16.00;;
8708;SDS011;4391;48.678;9.280;2022-12-19T06:02:03;40.70;;;16.45;;
8708;SDS011;4391;48.678;9.280;2022-12-19T06:04:30;49.13;;;17.00;;
8708;SDS011;4391;48.678;9.280;2022-12-19T06:06:57;42.42;;;16.33;;
8708;SDS011;4391;48.678;9.280;2022-12-19T06:09:24;47.17;;;15.63;;
8708;SDS011;4391;48.678;9.280;2022-12-19T06:11:51;45.77;;;16.70;;
8708;SDS011;4391;48.678;9.280;2022-12-19T06:14:18;44.28;;;15.93;;
8708;SDS011;4391;48.678;9.280;2022-12-19T06:16:46;43.88;;;15.98;;
8708;SDS011;4391;48.678;9.280;2022-12-19T06:19:13;45.90;;;15.63;;
8708;SDS011;4391;48.678;9.280;2022-12-19T06:21:40;47.53;;;15.82;;
8708;SDS011;4391;48.678;9.280;2022-12-19T06:24:08;41.23;;;15.97;;
8708;SDS011;4391;48.678;9.280;2022-12-19T06:26:35;42.33;;;15.70;;
8708;SDS011;4391;48.678;9.280;2022-12-19T06:29:02;43.42;;;15.35;;
8708;SDS011;4391;48.678;9.280;2022-12-19T06:31:29;45.83;;;16.23;;
8708;SDS011;4391;48.678;9.280;2022-12-19T06:33:57;46.92;;;16.00;;
8708;SDS011;4391;48.678;9.280;2022-12-19T06:36:24;51.87;;;16.97;;
8708;SDS011;4391;48.678;9.280;2022-12-19T06:38:52;44.85;;;16.85;;
8708;SDS011;4391;48.678;9.280;2022-12-19T06:41:22;45.13;;;15.63;;
8708;SDS011;4391;48.678;9.280;2022-12-19T06:44:07;42.72;;;15.77;;
8708;SDS011;4391;48.678;9.280;2022-12-19T06:46:35;38.47;;;15.15;;
8708;SDS011;4391;48.678;9.280;2022-12-19T06:49:03;45.53;;;16.33;;
8708;SDS011;4391;48.678;9.280;2022-12-19T06:51:30;49.53;;;16.85;;
8708;SDS011;4391;48.678;9.280;2022-12-19T06:53:57;49.88;;;16.52;;
8708;SDS011;4391;48.678;9.280;2022-12-19T06:56:25;51.58;;;17.73;;
8708;SDS011;4391;48.678;9.280;2022-12-19T06:58:52;47.38;;;16.35;;
8708;SDS011;4391;48.678;9.280;2022-12-19T07:01:19;45.93;;;15.93;;
8708;SDS011;4391;48.678;9.280;2022-12-19T07:03:49;43.50;;;16.20;;
8708;SDS011;4391;48.678;9.280;2022-12-19T07:06:17;51.00;;;18.80;;
8708;SDS011;4391;48.678;9.280;2022-12-19T07:08:44;48.88;;;16.58;;
8708;SDS011;4391;48.678;9.280;2022-12-19T07:11:11;42.33;;;15.98;;
8708;SDS011;4391;48.678;9.280;2022-12-19T07:13:38;46.07;;;16.00;;
8708;SDS011;4391;48.678;9.280;2022-12-19T07:16:07;44.25;;;15.65;;
8708;SDS011;4391;48.678;9.280;2022-12-19T07:18:36;45.00;;;15.57;;
8708;SDS011;4391;48.678;9.280;2022-12-19T07:21:04;44.35;;;15.43;;
8708;SDS011;4391;48.678;9.280;2022-12-19T07:23:34;43.85;;;15.90;;
8708;SDS011;4391;48.678;9.280;2022-12-19T07:26:01;44.37;;;16.10;;
8708;SDS011;4391;48.678;9.280;2022-12-19T07:28:28;48.40;;;16.98;;
8708;SDS011;4391;48.678;9.280;2022-12-19T07:30:55;47.70;;;15.55;;
8708;SDS011;4391;48.678;9.280;2022-12-19T07:33:22;46.53;;;16.65;;
8708;SDS011;4391;48.678;9.280;2022-12-19T07:35:48;44.40;;;16.33;;
8708;SDS011;4391;48.678;9.280;2022-12-19T07:38:16;44.50;;;16.33;;
8708;SDS011;4391;48.678;9.280;2022-12-19T07:40:44;46.70;;;15.45;;
8708;SDS011;4391;48.678;9.280;2022-12-19T07:43:11;43.58;;;15.65;;
8708;SDS011;4391;48.678;9.280;2022-12-19T07:45:38;45.55;;;16.40;;
8708;SDS011;4391;48.678;9.280;2022-12-19T07:48:06;44.25;;;17.02;;
8708;SDS011;4391;48.678;9.280;2022-12-19T07:50:34;49.37;;;17.20;;
8708;SDS011;4391;48.678;9.280;2022-12-19T07:53:01;44.83;;;17.88;;
8708;SDS011;4391;48.678;9.280;2022-12-19T07:55:27;49.67;;;17.90;;
8708;SDS011;4391;48.678;9.280;2022-12-19T07:57:56;49.67;;;17.88;;
8708;SDS011;4391;48.678;9.280;2022-12-19T08:00:24;44.20;;;17.75;;
8708;SDS011;4391;48.678;9.280;2022-12-19T08:02:51;49.80;;;17.17;;
8708;SDS011;4391;48.678;9.280;2022-12-19T08:05:18;44.20;;;16.05;;
8708;SDS011;4391;48.678;9.280;2022-12-19T08:07:44;41.58;;;16.23;;
8708;SDS011;4391;48.678;9.280;2022-12-19T08:10:11;47.05;;;17.75;;
8708;SDS011;4391;48.678;9.280;2022-12-19T08:12:39;40.42;;;15.90;;
8708;SDS011;4391;48.678;9.280;2022-12-19T08:15:08;45.27;;;17.17;;
8708;SDS011;4391;48.678;9.280;2022-12-19T08:17:36;45.13;;;16.95;;
8708;SDS011;4391;48.678;9.280;2022-12-19T08:20:04;45.22;;;15.90;;
8708;SDS011;4391;48.678;9.280;2022-12-19T08:22:31;45.47;;;16.48;;
8708;SDS011;4391;48.678;9.280;2022-12-19T08:24:59;47.03;;;16.98;;
8708;SDS011;4391;48.678;9.280;2022-12-19T08:27:25;42.10;;;16.83;;
8708;SDS011;4391;48.678;9.280;2022-12-19T08:29:52;47.50;;;17.17;;
8708;SDS011;4391;48.678;9.280;2022-12-19T08:32:21;48.25;;;16.52;;
8708;SDS011;4391;48.678;9.280;2022-12-19T08:34:47;44.00;;;15.43;;
8708;SDS011;4391;48.678;9.280;2022-12-19T08:37:14;41.00;;;16.30;;
8708;SDS011;4391;48.678;9.280;2022-12-19T08:39:41;50.20;;;16.53;;
8708;SDS011;4391;48.678;9.280;2022-12-19T08:42:08;49.92;;;17.50;;
8708;SDS011;4391;48.678;9.280;2022-12-19T08:44:35;47.83;;;17.95;;
8708;SDS011;4391;48.678;9.280;2022-12-19T08:47:02;39.83;;;17.08;;
8708;SDS011;4391;48.678;9.280;2022-12-19T08:49:30;44.85;;;17.77;;
8708;SDS011;4391;48.678;9.280;2022-12-19T08:51:57;46.33;;;17.10;;
8708;SDS011;4391;48.678;9.280;2022-12-19T08:54:24;45.50;;;16.52;;
8708;SDS011;4391;48.678;9.280;2022-12-19T08:56:52;45.72;;;17.83;;
8708;SDS011;4391;48.678;9.280;2022-12-19T08:59:19;42.63;;;16.80;;
8708;SDS011;4391;48.678;9.280;2022-12-19T09:01:45;44.47;;;17.17;;
8708;SDS011;4391;48.678;9.280;2022-12-19T09:04:12;42.10;;;15.63;;
8708;SDS011;4391;48.678;9.280;2022-12-19T09:06:41;45.20;;;16.67;;
8708;SDS011;4391;48.678;9.280;2022-12-19T09:09:08;37.85;;;14.57;;
8708;SDS011;4391;48.678;9.280;2022-12-19T09:11:36;37.03;;;14.75;;
8708;SDS011;4391;48.678;9.280;2022-12-19T09:14:07;36.20;;;15.00;;
8708;SDS011;4391;48.678;9.280;2022-12-19T09:16:34;42.57;;;17.00;;
8708;SDS011;4391;48.678;9.280;2022-12-19T09:19:01;46.20;;;17.60;;
8708;SDS011;4391;48.678;9.280;2022-12-19T09:21:28;43.22;;;16.63;;
8708;SDS011;4391;48.678;9.280;2022-12-19T09:23:57;39.53;;;16.75;;
8708;SDS011;4391;48.678;9.280;2022-12-19T09:26:25;39.13;;;15.25;;
8708;SDS011;4391;48.678;9.280;2022-12-19T09:28:52;39.13;;;15.13;;
8708;SDS011;4391;48.678;9.280;2022-12-19T09:31:20;45.38;;;16.02;;
8708;SDS011;4391;48.678;9.280;2022-12-19T09:33:49;38.22;;;15.85;;
8708;SDS011;4391;48.678;9.280;2022-12-19T09:36:17;44.70;;;16.90;;
8708;SDS011;4391;48.678;9.280;2022-12-19T09:38:47;45.28;;;18.52;;
8708;SDS011;4391;48.678;9.280;2022-12-19T09:41:21;45.30;;;17.90;;
8708;SDS011;4391;48.678;9.280;2022-12-19T09:44:00;44.88;;;17.20;;
8708;SDS011;4391;48.678;9.280;2022-12-19T09:46:38;49.97;;;17.63;;
8708;SDS011;4391;48.678;9.280;2022-12-19T09:49:13;40.80;;;16.90;;
8708;SDS011;4391;48.678;9.280;2022-12-19T09:51:45;45.15;;;16.75;;
8708;SDS011;4391;48.678;9.280;2022-12-19T09:54:19;39.47;;;15.73;;
8708;SDS011;4391;48.678;9.280;2022-12-19T09:56:54;39.10;;;17.10;;
8708;SDS011;4391;48.678;9.280;2022-12-19T09:59:25;44.08;;;17.30;;
8708;SDS011;4391;48.678;9.280;2022-12-19T10:01:57;38.35;;;16.27;;
8708;SDS011;4391;48.678;9.280;2022-12-19T10:04:29;41.63;;;16.80;;
8708;SDS011;4391;48.678;9.280;2022-12-19T10:06:59;39.57;;;16.27;;
8708;SDS011;4391;48.678;9.280;2022-12-19T10:09:28;39.22;;;16.15;;
8708;SDS011;4391;48.678;9.280;2022-12-19T10:12:05;37.35;;;16.02;;
8708;SDS011;4391;48.678;9.280;2022-12-19T10:14:47;37.97;;;16.35;;
8708;SDS011;4391;48.678;9.280;2022-12-19T10:17:22;41.25;;;16.48;;
8708;SDS011;4391;48.678;9.280;2022-12-19T10:20:04;36.20;;;14.90;;
8708;SDS011;4391;48.678;9.280;2022-12-19T10:22:42;41.45;;;16.02;;
8708;SDS011;4391;48.678;9.280;2022-12-19T10:25:20;38.13;;;15.95;;
8708;SDS011;4391;48.678;9.280;2022-12-19T10:27:57;37.55;;;15.90;;
8708;SDS011;4391;48.678;9.280;2022-12-19T10:30:30;42.78;;;16.92;;
8708;SDS011;4391;48.678;9.280;2022-12-19T10:33:02;39.80;;;15.93;;
8708;SDS011;4391;48.678;9.280;2022-12-19T10:35:39;39.35;;;17.00;;
8708;SDS011;4391;48.678;9.280;2022-12-19T10:38:13;44.72;;;16.73;;
8708;SDS011;4391;48.678;9.280;2022-12-19T10:40:47;41.35;;;17.92;;
8708;SDS011;4391;48.678;9.280;2022-12-19T10:43:21;41.65;;;17.42;;
8708;SDS011;4391;48.678;9.280;2022-12-19T10:45:57;41.80;;;17.40;;
8708;SDS011;4391;48.678;9.280;2022-12-19T10:48:26;38.42;;;16.33;;
8708;SDS011;4391;48.678;9.280;2022-12-19T10:50:54;38.80;;;16.50;;
8708;SDS011;4391;48.678;9.280;2022-12-19T10:53:24;44.83;;;17.70;;
8708;SDS011;4391;48.678;9.280;2022-12-19T10:55:53;42.25;;;18.02;;
8708;SDS011;4391;48.678;9.280;2022-12-19T10:58:26;42.63;;;19.33;;
8708;SDS011;4391;48.678;9.280;2022-12-19T11:01:05;41.45;;;17.73;;
8708;SDS011;4391;48.678;9.280;2022-12-19T11:03:37;46.42;;;18.52;;
8708;SDS011;4391;48.678;9.280;2022-12-19T11:11:59;50.03;;;19.67;;
8708;SDS011;4391;48.678;9.280;2022-12-19T11:14:29;44.20;;;18.65;;
8708;SDS011;4391;48.678;9.280;2022-12-19T11:16:56;41.47;;;17.65;;
8708;SDS011;4391;48.678;9.280;2022-12-19T11:19:25;39.92;;;18.02;;
8708;SDS011;4391;48.678;9.280;2022-12-19T11:21:55;41.65;;;18.48;;
8708;SDS011;4391;48.678;9.280;2022-12-19T11:24:26;42.80;;;17.97;;
8708;SDS011;4391;48.678;9.280;2022-12-19T11:26:56;44.78;;;18.67;;
8708;SDS011;4391;48.678;9.280;2022-12-19T11:29:23;38.95;;;17.85;;
8708;SDS011;4391;48.678;9.280;2022-12-19T11:31:57;40.85;;;18.35;;
8708;SDS011;4391;48.678;9.280;2022-12-19T11:34:26;39.58;;;18.58;;
8708;SDS011;4391;48.678;9.280;2022-12-19T11:36:55;42.17;;;19.53;;
8708;SDS011;4391;48.678;9.280;2022-12-19T11:39:31;41.92;;;19.40;;
8708;SDS011;4391;48.678;9.280;2022-12-19T11:42:05;44.67;;;19.77;;
8708;SDS011;4391;48.678;9.280;2022-12-19T11:44:39;38.03;;;18.42;;
8708;SDS011;4391;48.678;9.280;2022-12-19T11:47:18;40.83;;;18.80;;
8708;SDS011;4391;48.678;9.280;2022-12-19T11:49:57;39.93;;;19.03;;
8708;SDS011;4391;48.678;9.280;2022-12-19T11:52:34;38.83;;;19.15;;
8708;SDS011;4391;48.678;9.280;2022-12-19T11:55:08;40.78;;;17.98;;
8708;SDS011;4391;48.678;9.280;2022-12-19T11:57:45;39.22;;;18.52;;
8708;SDS011;4391;48.678;9.280;2022-12-19T12:00:23;40.83;;;19.45;;
8708;SDS011;4391;48.678;9.280;2022-12-19T12:05:47;35.22;;;18.45;;
8708;SDS011;4391;48.678;9.280;2022-12-19T12:11:20;35.33;;;17.65;;
8708;SDS011;4391;48.678;9.280;2022-12-19T12:13:55;35.83;;;18.20;;
8708;SDS011;4391;48.678;9.280;2022-12-19T12:16:46;37.93;;;18.93;;
8708;SDS011;4391;48.678;9.280;2022-12-19T12:19:29;41.72;;;18.60;;
8708;SDS011;4391;48.678;9.280;2022-12-19T12:22:15;44.40;;;20.13;;
8708;SDS011;4391;48.678;9.280;2022-12-19T12:24:55;41.03;;;20.95;;
8708;SDS011;4391;48.678;9.280;2022-12-19T12:27:36;41.38;;;21.25;;
8708;SDS011;4391;48.678;9.280;2022-12-19T12:30:09;43.77;;;21.23;;
8708;SDS011;4391;48.678;9.280;2022-12-19T12:32:44;42.47;;;21.75;;
8708;SDS011;4391;48.678;9.280;2022-12-19T12:35:26;41.95;;;21.58;;
8708;SDS011;4391;48.678;9.280;2022-12-19T12:38:03;39.03;;;20.50;;
8708;SDS011;4391;48.678;9.280;2022-12-19T12:40:58;38.20;;;18.55;;
8708;SDS011;4391;48.678;9.280;2022-12-19T12:43:43;37.53;;;18.63;;
8708;SDS011;4391;48.678;9.280;2022-12-19T12:46:16;35.75;;;17.35;;
8708;SDS011;4391;48.678;9.280;2022-12-19T12:48:49;39.97;;;19.40;;
8708;SDS011;4391;48.678;9.280;2022-12-19T12:51:20;40.83;;;19.10;;
8708;SDS011;4391;48.678;9.280;2022-12-19T12:53:48;38.13;;;18.90;;
8708;SDS011;4391;48.678;9.280;2022-12-19T12:56:21;43.03;;;19.87;;
8708;SDS011;4391;48.678;9.280;2022-12-19T13:01:51;36.42;;;17.55;;
8708;SDS011;4391;48.678;9.280;2022-12-19T13:04:20;33.38;;;15.27;;
8708;SDS011;4391;48.678;9.280;2022-12-19T13:07:12;37.42;;;18.42;;
8708;SDS011;4391;48.678;9.280;2022-12-19T13:09:44;45.00;;;21.03;;
8708;SDS011;4391;48.678;9.280;2022-12-19T13:12:19;41.22;;;19.38;;
8708;SDS011;4391;48.678;9.280;2022-12-19T13:21:04;37.72;;;18.80;;
8708;SDS011;4391;48.678;9.280;2022-12-19T13:23:41;40.27;;;19.87;;
8708;SDS011;4391;48.678;9.280;2022-12-19T13:29:31;39.38;;;18.90;;
8708;SDS011;4391;48.678;9.280;2022-12-19T13:32:06;42.42;;;20.33;;
8708;SDS011;4391;48.678;9.280;2022-12-19T13:34:37;40.15;;;19.23;;
8708;SDS011;4391;48.678;9.280;2022-12-19T13:37:26;44.30;;;19.83;;
8708;SDS011;4391;48.678;9.280;2022-12-19T13:42:56;39.20;;;18.00;;
8708;SDS011;4391;48.678;9.280;2022-12-19T13:45:48;36.97;;;17.98;;
8708;SDS011;4391;48.678;9.280;2022-12-19T13:48:21;45.10;;;21.13;;
8708;SDS011;4391;48.678;9.280;2022-12-19T13:50:53;39.57;;;18.33;;
8708;SDS011;4391;48.678;9.280;2022-12-19T13:53:22;42.38;;;18.80;;
8708;SDS011;4391;48.678;9.280;2022-12-19T13:55:53;39.70;;;18.42;;
8708;SDS011;4391;48.678;9.280;2022-12-19T13:58:24;38.47;;;18.70;;
8708;SDS011;4391;48.678;9.280;2022-12-19T14:00:53;41.00;;;18.27;;
8708;SDS011;4391;48.678;9.280;2022-12-19T14:03:24;40.77;;;18.20;;
8708;SDS011;4391;48.678;9.280;2022-12-19T14:06:01;37.22;;;18.02;;
8708;SDS011;4391;48.678;9.280;2022-12-19T14:08:35;37.15;;;17.45;;
8708;SDS011;4391;48.678;9.280;2022-12-19T14:11:06;39.88;;;17.15;;
8708;SDS011;4391;48.678;9.280;2022-12-19T14:13:37;35.67;;;16.65;;
8708;SDS011;4391;48.678;9.280;2022-12-19T14:16:27;38.57;;;17.30;;
8708;SDS011;4391;48.678;9.280;2022-12-19T14:21:23;41.92;;;19.50;;
8708;SDS011;4391;48.678;9.280;2022-12-19T14:23:52;54.22;;;23.60;;
8708;SDS011;4391;48.678;9.280;2022-12-19T14:26:34;48.35;;;22.10;;
8708;SDS011;4391;48.678;9.280;2022-12-19T14:29:02;48.27;;;22.17;;
8708;SDS011;4391;48.678;9.280;2022-12-19T14:31:32;46.55;;;20.95;;
8708;SDS011;4391;48.678;9.280;2022-12-19T14:34:01;45.75;;;20.60;;
8708;SDS011;4391;48.678;9.280;2022-12-19T14:36:29;48.33;;;22.55;;
8708;SDS011;4391;48.678;9.280;2022-12-19T14:38:57;66.13;;;26.10;;
8708;SDS011;4391;48.678;9.280;2022-12-19T14:41:35;56.40;;;25.07;;
8708;SDS011;4391;48.678;9.280;2022-12-19T14:44:23;56.35;;;24.63;;
8708;SDS011;4391;48.678;9.280;2022-12-19T14:47:10;47.15;;;21.90;;
8708;SDS011;4391;48.678;9.280;2022-12-19T14:49:38;49.28;;;21.25;;
8708;SDS011;4391;48.678;9.280;2022-12-19T14:57:54;55.97;;;25.35;;
8708;SDS011;4391;48.678;9.280;2022-12-19T15:00:23;52.20;;;22.55;;
8708;SDS011;4391;48.678;9.280;2022-12-19T15:02:52;55.63;;;23.55;;
8708;SDS011;4391;48.678;9.280;2022-12-19T15:05:21;48.33;;;22.65;;
8708;SDS011;4391;48.678;9.280;2022-12-19T15:07:49;45.30;;;21.00;;
8708;SDS011;4391;48.678;9.280;2022-12-19T15:10:20;45.10;;;20.30;;
8708;SDS011;4391;48.678;9.280;2022-12-19T15:12:53;41.83;;;19.10;;
8708;SDS011;4391;48.678;9.280;2022-12-19T15:15:42;37.80;;;16.90;;
8708;SDS011;4391;48.678;9.280;2022-12-19T15:18:17;42.20;;;17.98;;
8708;SDS011;4391;48.678;9.280;2022-12-19T15:20:46;53.37;;;21.67;;
8708;SDS011;4391;48.678;9.280;2022-12-19T15:23:13;45.45;;;19.23;;
8708;SDS011;4391;48.678;9.280;2022-12-19T15:25:40;42.83;;;18.17;;
8708;SDS011;4391;48.678;9.280;2022-12-19T15:28:12;48.17;;;20.55;;
8708;SDS011;4391;48.678;9.280;2022-12-19T15:30:40;45.40;;;19.83;;
8708;SDS011;4391;48.678;9.280;2022-12-19T15:33:11;41.07;;;18.17;;
8708;SDS011;4391;48.678;9.280;2022-12-19T15:35:39;42.13;;;18.83;;
8708;SDS011;4391;48.678;9.280;2022-12-19T15:38:06;44.97;;;19.63;;
8708;SDS011;4391;48.678;9.280;2022-12-19T15:40:33;63.00;;;24.08;;
8708;SDS011;4391;48.678;9.280;2022-12-19T15:43:00;56.97;;;23.92;;
8708;SDS011;4391;48.678;9.280;2022-12-19T15:45:29;55.30;;;21.53;;
8708;SDS011;4391;48.678;9.280;2022-12-19T15:47:57;58.28;;;22.65;;